Rurrenabaque, Bolivia

10:52 AM BOT on October 21, 2014 (GMT -0400)
Rurrenabaque | Change Station
CLOSE
Current Station
Airport
Location: Rurrenabaque,
Elevation: 666 ft
Nearby Weather Stations

Elev 666 ft 14.42 °S, 67.50 °W | Updated 52 minutes ago

Mostly Cloudy
Mostly Cloudy
84 °F
Feels Like 91 °F
N
9
Wind Variable Wind from South

Today
High -- | Low -- °F
--% Chance of Precip.
Yesterday
High -- | Low -- °F
Precip. -- in
5:59 AM 6:29 PM
Waning Crescent, 5% visible
Pressure 30.01 in
Visibility 6.2 miles
Clouds Few 3300 ft
Scattered Clouds 7000 ft
Mostly Cloudy 20000 ft
Heat Index 91 °F
Dew Point 73 °F
Humidity 70%
Rainfall 0.00 in
Snow Depth Not available.
UV 6 out of 12
Pollen Not available.
Air Quality Not available.
Flu Activity Not available.
METAR SLRQ 211400Z 18008KT 9999 FEW033 SCT070 BKN200 29/23 Q1016

More Conditions Fewer Conditions

Pressure 30.01 in
Visibility 6.2 miles
Clouds Few 3300 ft
Scattered Clouds 7000 ft
Mostly Cloudy 20000 ft
Heat Index 91 °F
Dew Point 73 °F
Humidity 70%
Rainfall 0.00 in
Snow Depth Not available.
UV 6 out of 12
Pollen Not available.
Air Quality Not available.
Flu Activity Not available.
METAR SLRQ 211400Z 18008KT 9999 FEW033 SCT070 BKN200 29/23 Q1016

More Conditions Fewer Conditions

10-Day Weather Forecast

Almanac

Astronomy

Oct. 21, 2014 Rise Set
Actual Time 5:59 AM BOT 6:29 PM BOT
Civil Twilight 5:38 AM BOT 6:51 PM BOT
Nautical Twilight 5:12 AM BOT 7:16 PM BOT
Astronomical Twilight 4:46 AM BOT 7:42 PM BOT
Moon 4:22 AM BOT 4:48 PM BOT
Length of Visible Light 13h 13m
Length of Day
12h 29m
Tomorrow will be 0m 47s longer.
Waning Crescent, 5% of the Moon is Illuminated
Today
Waning Crescent
Oct 23
New
Oct 30
First Quarter
Nov 6
Full
Nov 14
Last Quarter

Today's Extremes

Country Highs Country Lows

Community

WunderPhotos

Upload Photos

1,763,678 photos uploaded!

Nearby

Snow Depth

Not available.

Earthquake Activity

City Distance Mag. Time & Date
No recent earthquake activity has been reported nearby.
Minimum magnitude displayed is 2.5.

Coastal Water Temperatures

Place Temperature
No Stations Reporting

Nearby Weather Stations